Time;durP1;ratioP1;P1;durP2;ratioP2;P2;SDS_P1;SDS_P2;PMS_P1;PMS_P2;Temp;Humidity;BMP_temperature;BMP_pressure;BME280_temperature;BME280_humidity;BME280_pressure;Samples;Min_cycle;Max_cycle;Signal;HPM_P1;HPM_P2
2022/12/09 00:00:21;;;;;;;327.07;28.50;;;-3.40;99.90;;;;;;5065955;28;20049;-26
2022/12/09 00:02:47;;;;;;;225.47;22.10;;;-3.40;99.90;;;;;;5033433;28;20049;-26
2022/12/09 00:05:13;;;;;;;211.20;22.47;;;-3.50;99.90;;;;;;5033390;28;20479;-26
2022/12/09 00:07:39;;;;;;;300.37;24.20;;;-3.50;99.90;;;;;;5034662;28;20191;-26
2022/12/09 00:10:05;;;;;;;330.10;26.83;;;-3.50;99.90;;;;;;5052810;28;20045;-26
2022/12/09 00:12:31;;;;;;;341.50;28.20;;;-3.50;99.90;;;;;;5049322;28;20045;-26
2022/12/09 00:14:56;;;;;;;360.50;27.17;;;-3.50;99.90;;;;;;5053761;28;20456;-26
2022/12/09 00:17:22;;;;;;;360.77;29.47;;;-3.50;99.90;;;;;;5053082;28;20081;-26
2022/12/09 00:19:48;;;;;;;330.93;33.60;;;-3.50;99.90;;;;;;5040886;28;20124;-26
2022/12/09 00:22:13;;;;;;;313.93;32.77;;;-3.40;99.90;;;;;;5038585;28;20053;-26
2022/12/09 00:24:39;;;;;;;180.20;22.70;;;-3.40;99.90;;;;;;5046331;28;20053;-26
2022/12/09 00:27:05;;;;;;;342.60;28.43;;;-3.40;99.90;;;;;;5042701;28;20116;-26
2022/12/09 00:29:30;;;;;;;124.53;20.80;;;-3.40;99.90;;;;;;5053514;28;20056;-26
2022/12/09 00:31:56;;;;;;;244.60;25.10;;;-3.50;99.90;;;;;;5052491;28;20041;-26
2022/12/09 00:34:22;;;;;;;189.83;22.40;;;-3.50;99.90;;;;;;5050943;28;20107;-26
2022/12/09 00:36:47;;;;;;;346.00;29.90;;;-3.60;99.90;;;;;;5033212;28;20034;-26
2022/12/09 00:39:13;;;;;;;237.73;24.67;;;-3.60;99.90;;;;;;5033056;28;20085;-26
2022/12/09 00:41:39;;;;;;;236.73;23.60;;;-3.70;99.90;;;;;;5031798;28;20534;-26
2022/12/09 00:44:05;;;;;;;186.53;23.07;;;-3.70;99.90;;;;;;5033583;28;20045;-26
2022/12/09 00:46:31;;;;;;;173.73;21.37;;;-3.70;99.90;;;;;;5047102;28;20052;-26
2022/12/09 00:48:56;;;;;;;191.23;21.50;;;-3.70;99.90;;;;;;5053846;28;20040;-26
2022/12/09 00:51:24;;;;;;;323.67;30.13;;;-2.40;99.90;;;;;;5056430;28;20045;-26
2022/12/09 00:53:54;;;;;;;140.43;20.83;;;-3.70;99.90;;;;;;5055443;28;20048;-26
2022/12/09 00:56:25;;;;;;;155.63;20.47;;;-3.70;99.90;;;;;;5058449;28;20060;-26
2022/12/09 00:58:51;;;;;;;92.93;20.43;;;-3.70;99.90;;;;;;5055989;28;20048;-25
2022/12/09 01:01:17;;;;;;;114.77;18.90;;;-3.70;99.90;;;;;;5056268;28;20041;-26
2022/12/09 01:03:43;;;;;;;93.33;20.10;;;-3.70;99.90;;;;;;5056503;28;20052;-25
2022/12/09 01:06:11;;;;;;;130.07;20.57;;;-3.70;99.90;;;;;;5054678;28;20363;-26
2022/12/09 01:08:37;;;;;;;85.97;19.60;;;-3.80;99.90;;;;;;5054879;28;20045;-25
2022/12/09 01:11:17;;;;;;;53.10;16.57;;;-3.80;99.90;;;;;;5056087;28;20055;-25
2022/12/09 01:13:43;;;;;;;69.57;17.37;;;-3.80;99.90;;;;;;5056068;28;20057;-25
2022/12/09 01:16:17;;;;;;;78.77;18.30;;;-3.80;99.90;;;;;;5055732;28;20053;-24
2022/12/09 01:18:44;;;;;;;66.37;17.40;;;-3.90;99.90;;;;;;5056247;28;20131;-25
2022/12/09 01:21:10;;;;;;;93.97;19.23;;;-3.90;99.90;;;;;;5055849;28;20057;-24
2022/12/09 01:23:36;;;;;;;146.00;23.13;;;-3.20;99.90;;;;;;5055855;28;20057;-24
2022/12/09 01:26:06;;;;;;;79.10;17.93;;;-3.90;99.90;;;;;;5055771;28;20048;-24
2022/12/09 01:28:34;;;;;;;108.60;19.20;;;-3.90;99.90;;;;;;5055736;28;20059;-24
2022/12/09 01:31:17;;;;;;;58.50;16.73;;;-3.90;99.90;;;;;;5038393;28;20519;-25
2022/12/09 01:33:43;;;;;;;84.13;16.95;;;-3.90;99.90;;;;;;5035734;28;20129;-24
2022/12/09 01:36:18;;;;;;;105.53;19.37;;;-4.00;99.90;;;;;;5035594;28;20137;-25
2022/12/09 01:38:45;;;;;;;86.33;16.30;;;-4.00;99.90;;;;;;5036490;28;20380;-24
2022/12/09 01:41:11;;;;;;;72.90;17.77;;;-4.00;99.90;;;;;;5036269;28;20411;-24
2022/12/09 01:43:38;;;;;;;68.33;20.10;;;-4.00;99.90;;;;;;5034403;28;20048;-24
2022/12/09 01:46:04;;;;;;;78.03;17.63;;;-4.00;99.90;;;;;;5036331;28;20037;-25
2022/12/09 01:48:33;;;;;;;99.40;18.30;;;-4.10;99.90;;;;;;5034276;28;20132;-24
2022/12/09 01:51:08;;;;;;;89.87;19.43;;;-4.00;99.90;;;;;;5036478;28;20084;-25
2022/12/09 01:53:37;;;;;;;80.43;18.90;;;-4.00;99.90;;;;;;5055558;28;20068;-24
2022/12/09 01:56:09;;;;;;;107.47;21.80;;;-4.00;99.90;;;;;;5055138;28;20128;-25
2022/12/09 01:58:35;;;;;;;79.73;18.53;;;-4.10;99.90;;;;;;5055236;28;20052;-24
2022/12/09 02:01:01;;;;;;;66.70;18.83;;;-4.10;99.90;;;;;;5054931;28;20048;-24
2022/12/09 02:03:27;;;;;;;79.63;18.40;;;-4.20;99.90;;;;;;5048222;28;20106;-25
2022/12/09 02:05:53;;;;;;;104.97;19.77;;;-4.30;99.90;;;;;;5063782;28;20590;-25
2022/12/09 02:08:19;;;;;;;96.67;18.03;;;-4.30;99.90;;;;;;5035869;28;20041;-24
2022/12/09 02:11:26;;;;;;;72.50;18.13;;;-4.30;99.90;;;;;;5033882;28;20044;-24
2022/12/09 02:14:07;;;;;;;88.67;17.87;;;-4.30;99.90;;;;;;5017077;28;20102;-25
2022/12/09 02:16:42;;;;;;;72.33;18.43;;;-4.30;99.90;;;;;;5035131;28;20037;-24
2022/12/09 02:19:40;;;;;;;46.00;17.10;;;-4.30;99.90;;;;;;5034927;28;20088;-24
2022/12/09 02:22:08;;;;;;;70.50;16.93;;;-4.40;99.90;;;;;;5034411;28;20053;-24
2022/12/09 02:24:44;;;;;;;31.97;14.77;;;-4.40;99.90;;;;;;5038993;28;20065;-25
2022/12/09 02:27:13;;;;;;;53.73;16.43;;;-4.40;99.90;;;;;;5034749;28;20399;-24
2022/12/09 02:29:52;;;;;;;29.57;16.03;;;-4.50;99.90;;;;;;5035234;28;20053;-24
2022/12/09 02:32:37;;;;;;;32.10;15.97;;;-4.50;99.90;;;;;;5035533;28;20049;-24
2022/12/09 02:35:19;;;;;;;32.77;16.27;;;-4.50;99.90;;;;;;5041046;28;20080;-24
2022/12/09 02:38:10;;;;;;;36.00;16.27;;;-4.50;99.90;;;;;;5042022;28;20126;-27
2022/12/09 02:40:49;;;;;;;39.37;17.07;;;-4.50;99.90;;;;;;5034532;28;20476;-28
2022/12/09 02:43:18;;;;;;;38.40;17.37;;;-4.50;99.90;;;;;;5035029;28;20041;-28
2022/12/09 02:45:44;;;;;;;39.50;17.60;;;-4.40;99.90;;;;;;5066466;28;20399;-28
2022/12/09 02:48:13;;;;;;;38.80;17.73;;;-4.40;99.90;;;;;;5034431;28;20056;-27
2022/12/09 02:50:40;;;;;;;36.23;16.70;;;-4.10;99.90;;;;;;5034292;28;20123;-27
2022/12/09 02:53:09;;;;;;;40.27;18.33;;;-4.30;99.90;;;;;;5034341;28;20045;-27
2022/12/09 02:55:35;;;;;;;49.93;19.40;;;-4.30;99.90;;;;;;5037364;28;20047;-25
2022/12/09 02:58:03;;;;;;;48.90;19.60;;;-4.30;99.90;;;;;;5053180;28;20102;-24
2022/12/09 03:00:28;;;;;;;46.73;18.93;;;-4.30;99.90;;;;;;5036007;28;20072;-25
2022/12/09 03:03:00;;;;;;;48.17;20.20;;;-4.30;99.90;;;;;;5034110;28;20096;-26
2022/12/09 03:05:42;;;;;;;54.13;20.10;;;-4.20;99.90;;;;;;5034128;28;20041;-26
2022/12/09 03:08:26;;;;;;;55.60;19.83;;;-4.20;99.90;;;;;;5053891;28;20483;-27
2022/12/09 03:11:22;;;;;;;52.63;20.63;;;-4.10;99.90;;;;;;5053692;28;20478;-26
2022/12/09 03:13:58;;;;;;;46.77;18.63;;;-4.10;99.90;;;;;;5049206;28;20075;-26
2022/12/09 03:16:48;;;;;;;54.97;19.67;;;-4.10;99.90;;;;;;5053747;28;20044;-27
2022/12/09 03:19:25;;;;;;;50.30;19.13;;;-4.10;99.90;;;;;;5052817;28;20132;-26
2022/12/09 03:21:55;;;;;;;58.13;20.97;;;-4.10;99.90;;;;;;5053871;28;20048;-26
2022/12/09 03:24:28;;;;;;;55.90;20.13;;;-4.00;99.90;;;;;;5086174;28;20061;-26
2022/12/09 03:26:54;;;;;;;65.22;19.05;;;-4.20;99.90;;;;;;5050925;28;20053;-27
2022/12/09 03:29:25;;;;;;;52.43;19.13;;;-4.00;99.90;;;;;;5033156;28;20061;-26
2022/12/09 03:31:53;;;;;;;53.43;18.83;;;-4.00;99.90;;;;;;5032738;28;20128;-26
2022/12/09 03:34:24;;;;;;;54.63;18.27;;;-4.00;99.90;;;;;;5032567;28;20484;-26
2022/12/09 03:36:53;;;;;;;62.63;20.40;;;-4.00;99.90;;;;;;5033658;28;20084;-26
2022/12/09 03:39:24;;;;;;;48.50;17.23;;;-4.00;99.90;;;;;;5041726;28;20448;-27
2022/12/09 03:41:55;;;;;;;57.13;20.23;;;-4.00;99.90;;;;;;5033699;28;20053;-26
2022/12/09 03:44:20;;;;;;;49.63;19.00;;;-4.00;99.90;;;;;;5034151;28;20122;-26
2022/12/09 03:46:46;;;;;;;55.80;18.93;;;-3.90;99.90;;;;;;5033551;28;20483;-27
2022/12/09 03:49:12;;;;;;;53.37;19.23;;;-3.80;99.90;;;;;;5049054;28;20037;-27
2022/12/09 03:51:48;;;;;;;62.47;21.63;;;-3.80;99.90;;;;;;5052476;28;20056;-27
2022/12/09 03:54:26;;;;;;;59.53;19.77;;;-3.80;99.90;;;;;;5069508;28;20057;-26
2022/12/09 03:56:55;;;;;;;56.10;17.53;;;-3.80;99.90;;;;;;5053303;28;20131;-27
2022/12/09 03:59:23;;;;;;;50.97;17.50;;;-3.70;99.90;;;;;;5052766;28;20491;-26
2022/12/09 04:01:49;;;;;;;51.87;18.77;;;-3.80;99.90;;;;;;5018046;28;20480;-27
2022/12/09 04:04:15;;;;;;;51.73;18.17;;;-3.80;99.90;;;;;;5033342;28;20049;-26
2022/12/09 04:06:42;;;;;;;52.50;19.13;;;-3.80;99.90;;;;;;5033392;28;20050;-26
2022/12/09 04:09:10;;;;;;;48.20;18.27;;;-3.80;99.90;;;;;;5042993;28;20402;-27
2022/12/09 04:11:35;;;;;;;52.53;18.23;;;-3.80;99.90;;;;;;5053799;28;20099;-27
2022/12/09 04:14:01;;;;;;;50.73;17.13;;;-3.90;99.90;;;;;;5038152;28;20049;-26
2022/12/09 04:16:27;;;;;;;57.53;18.20;;;-3.90;99.90;;;;;;5033261;28;20399;-27
2022/12/09 04:18:53;;;;;;;52.97;17.63;;;-3.90;99.90;;;;;;5033300;28;20115;-26
2022/12/09 04:21:19;;;;;;;51.73;17.43;;;-4.00;99.90;;;;;;5033150;28;20454;-26
2022/12/09 04:23:44;;;;;;;47.73;18.27;;;-4.10;99.90;;;;;;5066457;28;20065;-26
2022/12/09 04:26:19;;;;;;;46.80;18.00;;;-3.90;99.90;;;;;;5037612;28;20041;-26
2022/12/09 04:28:44;;;;;;;50.50;18.27;;;-4.20;99.90;;;;;;5036362;28;20451;-26
2022/12/09 04:31:12;;;;;;;51.73;17.80;;;-4.20;99.90;;;;;;5035782;28;20132;-26
2022/12/09 04:33:38;;;;;;;52.27;18.03;;;-4.20;99.90;;;;;;5048537;28;20056;-27
2022/12/09 04:36:10;;;;;;;46.83;17.97;;;-4.10;99.90;;;;;;5055701;28;20044;-26
2022/12/09 04:38:36;;;;;;;38.23;14.17;;;-4.30;99.90;;;;;;5056505;28;20568;-26
2022/12/09 04:41:02;;;;;;;52.37;19.00;;;-4.20;99.90;;;;;;5056707;28;20057;-26
2022/12/09 04:43:28;;;;;;;51.20;18.17;;;-4.20;99.90;;;;;;5056441;28;20051;-27
2022/12/09 04:45:59;;;;;;;56.17;18.80;;;-4.20;99.90;;;;;;5057434;28;20063;-27
2022/12/09 04:48:25;;;;;;;55.20;18.47;;;-4.20;99.90;;;;;;5057454;28;20123;-26
2022/12/09 04:50:51;;;;;;;53.97;18.13;;;-4.20;99.90;;;;;;5056505;28;20541;-27
2022/12/09 04:53:17;;;;;;;51.47;18.13;;;-4.20;99.90;;;;;;5055420;28;20171;-27
2022/12/09 04:55:42;;;;;;;54.50;17.27;;;-4.20;99.90;;;;;;5036791;28;20045;-27
2022/12/09 04:58:08;;;;;;;54.97;17.83;;;-4.20;99.90;;;;;;5036477;28;20403;-27
2022/12/09 05:00:34;;;;;;;43.40;15.83;;;-4.20;99.90;;;;;;5035506;28;20053;-27
2022/12/09 05:02:59;;;;;;;53.40;16.90;;;-4.30;99.90;;;;;;5036407;28;20492;-26
2022/12/09 05:05:25;;;;;;;54.00;17.73;;;-4.30;99.90;;;;;;5057548;28;20076;-27
2022/12/09 05:07:51;;;;;;;56.53;17.87;;;-4.30;99.90;;;;;;5053851;28;20387;-26
2022/12/09 05:10:17;;;;;;;58.20;18.20;;;-4.30;99.90;;;;;;5056148;28;20045;-26
2022/12/09 05:12:42;;;;;;;59.23;20.10;;;-3.70;99.90;;;;;;5056919;28;20091;-26
2022/12/09 05:15:08;;;;;;;66.27;20.63;;;-4.00;99.90;;;;;;5046780;28;20509;-27
2022/12/09 05:17:34;;;;;;;74.00;21.53;;;-3.90;99.90;;;;;;5035704;28;20585;-27
2022/12/09 05:20:00;;;;;;;60.13;20.87;;;-3.80;99.90;;;;;;5036605;28;20057;-27
2022/12/09 05:22:26;;;;;;;62.83;19.77;;;-3.80;99.90;;;;;;5035800;28;20087;-27
2022/12/09 05:24:51;;;;;;;59.70;20.13;;;-3.80;99.90;;;;;;5035790;28;20092;-27
2022/12/09 05:27:17;;;;;;;60.77;20.37;;;-3.80;99.90;;;;;;5034802;28;20546;-26
2022/12/09 05:29:43;;;;;;;65.10;19.83;;;-3.20;99.90;;;;;;5035563;28;20037;-26
2022/12/09 05:32:09;;;;;;;66.33;21.90;;;-3.80;99.90;;;;;;5036351;28;20052;-27
2022/12/09 05:34:34;;;;;;;61.03;20.30;;;-3.80;99.90;;;;;;5036448;28;20464;-27
2022/12/09 05:37:00;;;;;;;60.93;19.70;;;-3.90;99.90;;;;;;5035109;28;20480;-27
2022/12/09 05:39:26;;;;;;;60.97;20.00;;;-3.90;99.90;;;;;;5035921;28;20491;-27
2022/12/09 05:41:51;;;;;;;66.53;19.13;;;-3.80;99.90;;;;;;5035892;28;20110;-27
2022/12/09 05:44:17;;;;;;;69.70;19.37;;;-3.90;99.90;;;;;;5035031;28;20085;-27
2022/12/09 05:46:43;;;;;;;57.27;19.90;;;-3.90;99.90;;;;;;5035554;28;20526;-27
2022/12/09 05:49:09;;;;;;;59.33;19.47;;;-3.90;99.90;;;;;;5034343;28;20099;-27
2022/12/09 05:51:34;;;;;;;65.13;19.90;;;-3.60;99.90;;;;;;5035461;28;20056;-27
2022/12/09 05:54:02;;;;;;;59.97;20.43;;;-3.80;99.90;;;;;;5035112;28;20049;-26
2022/12/09 05:56:27;;;;;;;62.77;20.07;;;-3.70;99.90;;;;;;5042412;28;20037;-27
2022/12/09 05:58:54;;;;;;;69.70;21.07;;;-3.80;99.90;;;;;;5054071;28;20442;-27
2022/12/09 06:01:20;;;;;;;67.40;21.17;;;-3.50;99.90;;;;;;5054260;28;20064;-28
2022/12/09 06:03:47;;;;;;;60.40;20.93;;;-3.50;99.90;;;;;;5055167;28;20056;-27
2022/12/09 06:06:16;;;;;;;69.90;21.60;;;-3.40;99.90;;;;;;5055135;28;20080;-27
2022/12/09 06:08:43;;;;;;;66.40;21.17;;;-3.40;99.90;;;;;;5054906;28;20434;-27
2022/12/09 06:11:12;;;;;;;66.87;20.67;;;-3.40;99.90;;;;;;5055021;28;20123;-27
2022/12/09 06:13:38;;;;;;;71.13;22.07;;;-3.40;99.90;;;;;;5054953;28;20048;-27
2022/12/09 06:16:04;;;;;;;65.37;21.17;;;-3.40;99.90;;;;;;5055364;28;20103;-27
2022/12/09 06:18:31;;;;;;;61.63;20.47;;;-3.50;99.90;;;;;;5055310;28;20087;-27
2022/12/09 06:20:57;;;;;;;61.87;20.30;;;-3.50;99.90;;;;;;5051370;28;20041;-27
2022/12/09 06:23:23;;;;;;;61.97;20.03;;;-3.50;99.90;;;;;;5062623;28;20090;-27
2022/12/09 06:25:48;;;;;;;61.37;20.77;;;-3.50;99.90;;;;;;5061520;28;20120;-27
2022/12/09 06:28:14;;;;;;;64.20;20.97;;;-3.60;99.90;;;;;;5048803;28;20048;-27
2022/12/09 06:30:40;;;;;;;58.17;19.97;;;-3.60;99.90;;;;;;5053537;28;20048;-27
2022/12/09 06:33:06;;;;;;;53.00;18.33;;;-3.60;99.90;;;;;;5021394;28;20052;-27
2022/12/09 06:35:32;;;;;;;44.27;16.40;;;-3.90;99.90;;;;;;5052574;28;20057;-28
2022/12/09 06:37:58;;;;;;;47.60;17.57;;;-4.00;99.90;;;;;;5054754;28;20080;-27
2022/12/09 06:40:23;;;;;;;49.07;17.63;;;-4.20;99.90;;;;;;5054490;28;20407;-26
2022/12/09 06:42:50;;;;;;;52.27;17.30;;;-4.30;99.90;;;;;;5049905;28;20049;-26
2022/12/09 06:45:19;;;;;;;46.40;17.63;;;-4.30;99.90;;;;;;5034950;28;20380;-27
2022/12/09 06:47:45;;;;;;;48.37;17.83;;;-4.30;99.90;;;;;;5051320;28;20052;-27
2022/12/09 06:50:12;;;;;;;46.73;16.43;;;-4.30;99.90;;;;;;5053366;28;20056;-26
2022/12/09 06:52:38;;;;;;;52.17;18.63;;;-4.40;99.90;;;;;;5038030;28;20042;-27
2022/12/09 06:55:06;;;;;;;59.50;18.93;;;-4.20;99.90;;;;;;5034318;28;20458;-26
2022/12/09 06:57:32;;;;;;;59.67;19.43;;;-4.00;99.90;;;;;;5034676;28;20049;-26
2022/12/09 06:59:58;;;;;;;59.77;20.30;;;-3.80;99.90;;;;;;5033768;28;20050;-27
2022/12/09 07:02:23;;;;;;;69.87;21.83;;;-3.70;99.90;;;;;;5033225;28;20060;-27
2022/12/09 07:04:53;;;;;;;81.17;23.00;;;-3.60;99.90;;;;;;5034111;28;20049;-26
2022/12/09 07:07:19;;;;;;;66.43;20.47;;;-3.60;99.90;;;;;;5034112;28;20103;-27
2022/12/09 07:09:45;;;;;;;73.60;22.23;;;-3.50;99.90;;;;;;5049625;28;20045;-28
2022/12/09 07:12:11;;;;;;;73.67;24.23;;;-3.50;99.90;;;;;;5053271;28;20041;-27
2022/12/09 07:14:37;;;;;;;71.97;22.67;;;-3.60;99.90;;;;;;5036668;28;20132;-28
2022/12/09 07:17:03;;;;;;;66.57;21.37;;;-3.40;99.90;;;;;;5072639;28;20079;-27
2022/12/09 07:19:29;;;;;;;70.10;22.00;;;-3.40;99.90;;;;;;5073843;28;20052;-27
2022/12/09 07:21:56;;;;;;;69.67;22.37;;;-3.40;99.90;;;;;;5051802;28;20045;-27
2022/12/09 07:24:22;;;;;;;67.83;21.87;;;-3.40;99.90;;;;;;5033139;28;20060;-27
2022/12/09 07:26:48;;;;;;;67.27;21.63;;;-2.90;99.90;;;;;;5046441;28;20045;-27
2022/12/09 07:29:14;;;;;;;66.27;20.23;;;-3.50;99.90;;;;;;5051902;28;20613;-27
2022/12/09 07:31:40;;;;;;;62.70;20.57;;;-3.50;99.90;;;;;;5053898;28;20101;-27
2022/12/09 07:34:06;;;;;;;67.50;21.57;;;-3.50;99.90;;;;;;5047387;28;20497;-27
2022/12/09 07:36:34;;;;;;;60.93;20.53;;;-3.60;99.90;;;;;;5046914;28;20045;-27
2022/12/09 07:39:06;;;;;;;61.03;21.13;;;-3.70;99.90;;;;;;5048535;28;20045;-27
2022/12/09 07:41:32;;;;;;;60.83;20.30;;;-3.60;99.90;;;;;;5050539;28;20372;-27
2022/12/09 07:43:58;;;;;;;60.40;20.77;;;-2.60;99.90;;;;;;5036410;28;20042;-27
2022/12/09 07:46:27;;;;;;;68.63;22.13;;;-3.10;99.90;;;;;;5032224;28;20041;-27
2022/12/09 07:48:53;;;;;;;61.33;22.53;;;-3.50;99.90;;;;;;5031986;28;20046;-27
2022/12/09 07:51:19;;;;;;;67.90;23.17;;;-3.40;99.90;;;;;;5033536;28;20049;-27
2022/12/09 07:53:45;;;;;;;65.20;21.77;;;-3.30;99.90;;;;;;5033516;28;20483;-27
2022/12/09 07:56:13;;;;;;;59.47;21.13;;;-3.40;99.90;;;;;;5033659;28;20050;-27
2022/12/09 07:58:40;;;;;;;60.83;21.00;;;-3.60;99.90;;;;;;5037172;28;20046;-27
2022/12/09 08:01:15;;;;;;;56.20;20.90;;;-3.70;99.90;;;;;;5038189;28;20447;-27
2022/12/09 08:03:41;;;;;;;58.07;21.10;;;-3.70;99.90;;;;;;5037134;28;20491;-27
2022/12/09 08:06:07;;;;;;;65.73;22.03;;;-3.70;99.90;;;;;;5037313;28;20092;-27
2022/12/09 08:08:33;;;;;;;67.80;22.70;;;-3.60;99.90;;;;;;5036156;28;20041;-27
2022/12/09 08:11:09;;;;;;;72.87;23.70;;;-3.50;99.90;;;;;;5036157;28;20068;-28
2022/12/09 08:13:35;;;;;;;73.50;23.33;;;-3.30;99.90;;;;;;5037875;28;20140;-27
2022/12/09 08:16:06;;;;;;;76.73;24.93;;;-3.10;99.90;;;;;;5035904;28;20051;-28
2022/12/09 08:18:33;;;;;;;82.40;25.80;;;-2.90;99.90;;;;;;5037400;28;20045;-28
2022/12/09 08:21:02;;;;;;;73.73;25.17;;;-2.80;99.90;;;;;;5037070;28;20092;-27
2022/12/09 08:23:27;;;;;;;85.37;26.23;;;-2.80;99.90;;;;;;5036755;28;20069;-27
2022/12/09 08:25:54;;;;;;;81.40;26.20;;;-2.70;99.90;;;;;;5037229;28;20053;-28
2022/12/09 08:28:21;;;;;;;89.33;26.87;;;-2.60;99.90;;;;;;5036780;28;20132;-28
2022/12/09 08:30:47;;;;;;;87.23;26.73;;;-2.50;99.90;;;;;;5037584;28;20049;-28
2022/12/09 08:33:12;;;;;;;97.57;28.00;;;-2.40;99.90;;;;;;5036788;28;20139;-28
2022/12/09 08:35:38;;;;;;;94.57;29.60;;;-2.30;99.90;;;;;;5036592;28;20088;-29
2022/12/09 08:38:04;;;;;;;106.17;31.40;;;-1.40;99.90;;;;;;5037281;28;20050;-28
2022/12/09 08:40:30;;;;;;;120.97;32.13;;;-2.20;99.90;;;;;;5035546;28;20143;-28
2022/12/09 08:42:55;;;;;;;108.63;31.63;;;-2.10;99.90;;;;;;5036397;28;20057;-28
2022/12/09 08:45:21;;;;;;;113.17;29.53;;;-2.10;99.90;;;;;;5036183;28;20037;-29
2022/12/09 08:47:47;;;;;;;114.13;31.33;;;-2.00;99.90;;;;;;5035482;28;20049;-28
2022/12/09 08:50:12;;;;;;;121.57;33.00;;;-1.90;99.90;;;;;;5035279;28;20045;-28
2022/12/09 08:52:38;;;;;;;143.00;37.30;;;-1.80;99.90;;;;;;5036503;28;20134;-28
2022/12/09 08:55:05;;;;;;;155.93;37.83;;;-0.80;99.90;;;;;;5035215;28;20052;-28
2022/12/09 08:57:30;;;;;;;149.70;38.33;;;-1.40;99.90;;;;;;5036302;28;20041;-28
2022/12/09 08:59:56;;;;;;;205.30;57.97;;;-1.20;99.90;;;;;;5035315;28;20056;-28
2022/12/09 09:02:22;;;;;;;156.20;37.60;;;-1.10;99.90;;;;;;5035672;28;20140;-29
2022/12/09 09:04:49;;;;;;;172.30;42.17;;;-1.50;99.90;;;;;;5036505;28;20096;-29
2022/12/09 09:07:15;;;;;;;160.87;37.73;;;-0.90;99.90;;;;;;5034962;28;20048;-29
2022/12/09 09:09:41;;;;;;;165.23;39.63;;;-0.90;99.90;;;;;;5035802;28;20050;-29
2022/12/09 09:12:06;;;;;;;172.27;39.77;;;-0.80;99.90;;;;;;5036930;28;20045;-29
2022/12/09 09:14:32;;;;;;;146.77;39.33;;;-0.80;99.90;;;;;;5036132;28;20046;-29
2022/12/09 09:16:58;;;;;;;162.63;40.73;;;-1.40;99.90;;;;;;5068126;28;20080;-30
2022/12/09 09:19:25;;;;;;;169.13;43.00;;;-0.90;99.90;;;;;;5035388;28;20132;-31
2022/12/09 09:21:52;;;;;;;162.07;45.20;;;-0.90;99.90;;;;;;5035932;28;20045;-29
2022/12/09 09:24:20;;;;;;;167.53;45.50;;;-0.90;99.90;;;;;;5034498;28;20064;-30
2022/12/09 09:26:46;;;;;;;200.37;74.73;;;-0.80;99.90;;;;;;5035893;28;20043;-29
2022/12/09 09:29:14;;;;;;;153.50;39.00;;;-0.70;99.90;;;;;;5035852;28;20429;-29
2022/12/09 09:31:40;;;;;;;157.20;40.93;;;-0.60;99.90;;;;;;5035817;28;20057;-30
2022/12/09 09:34:06;;;;;;;147.37;39.27;;;-0.90;99.90;;;;;;5035101;28;20049;-30
2022/12/09 09:36:32;;;;;;;131.17;35.17;;;-0.50;99.90;;;;;;5036171;28;20037;-30
2022/12/09 09:38:58;;;;;;;125.87;31.67;;;-0.30;99.90;;;;;;5035611;28;20045;-30
2022/12/09 09:41:42;;;;;;;125.10;32.93;;;-0.40;99.90;;;;;;5035595;28;20037;-32
2022/12/09 09:44:28;;;;;;;112.47;30.77;;;-0.30;99.90;;;;;;5051169;28;20053;-32
2022/12/09 09:46:55;;;;;;;153.10;36.67;;;0.40;99.90;;;;;;5068125;28;20123;-30
2022/12/09 09:49:46;;;;;;;146.03;36.40;;;-0.10;99.90;;;;;;5035539;28;20060;-31
2022/12/09 09:52:24;;;;;;;125.27;30.43;;;-0.30;99.90;;;;;;5036005;28;20056;-31
2022/12/09 09:54:51;;;;;;;112.60;31.67;;;-0.30;99.90;;;;;;5035438;28;20045;-32
2022/12/09 09:57:24;;;;;;;117.03;31.90;;;-0.20;99.90;;;;;;5035331;28;20049;-32
2022/12/09 10:00:01;;;;;;;112.93;30.20;;;-0.20;99.90;;;;;;5035730;28;20049;-32
2022/12/09 10:03:19;;;;;;;126.87;34.43;;;-0.20;99.90;;;;;;5035318;28;20041;-32
2022/12/09 10:06:00;;;;;;;138.20;34.43;;;-0.40;99.90;;;;;;5012370;28;20084;-34
2022/12/09 10:08:28;;;;;;;133.50;35.77;;;-0.30;99.90;;;;;;5033975;28;20547;-33
2022/12/09 10:11:09;;;;;;;144.50;39.80;;;-0.30;99.90;;;;;;5034994;28;20052;-33
2022/12/09 10:14:08;;;;;;;164.37;40.67;;;-0.20;99.90;;;;;;5033881;28;20085;-35
2022/12/09 10:16:40;;;;;;;122.80;34.13;;;0.00;99.90;;;;;;5035464;28;20068;-35
2022/12/09 10:19:32;;;;;;;124.67;34.43;;;-0.10;99.90;;;;;;5035238;28;20046;-39
2022/12/09 10:22:00;;;;;;;148.30;36.33;;;0.00;99.90;;;;;;5034815;28;20049;-35
2022/12/09 10:24:33;;;;;;;117.57;32.50;;;-0.10;99.90;;;;;;5034382;28;20057;-40
2022/12/09 10:27:23;;;;;;;110.57;31.00;;;0.00;99.90;;;;;;5033371;28;20406;-40
2022/12/09 10:29:59;;;;;;;141.67;35.77;;;-0.10;99.90;;;;;;5033257;28;20076;-41
2022/12/09 10:32:29;;;;;;;130.50;35.37;;;-0.10;99.90;;;;;;5034768;28;20049;-40
2022/12/09 10:34:55;;;;;;;205.93;40.33;;;-0.20;99.90;;;;;;5034137;28;20053;-42
2022/12/09 10:37:23;;;;;;;158.47;38.13;;;-0.20;99.90;;;;;;5034557;28;20051;-41
2022/12/09 10:39:55;;;;;;;172.07;39.40;;;-0.20;99.90;;;;;;5034627;28;20095;-42
2022/12/09 10:45:09;;;;;;;155.27;38.13;;;-0.20;99.90;;;;;;5034701;28;20053;-42
2022/12/09 10:47:35;;;;;;;125.80;35.13;;;0.00;99.90;;;;;;5033417;28;20052;-42
2022/12/09 10:50:02;;;;;;;111.70;31.87;;;0.10;99.90;;;;;;5066317;28;20049;-42
2022/12/09 10:52:32;;;;;;;141.98;38.80;;;0.00;99.90;;;;;;5034261;28;20107;-42
2022/12/09 10:54:58;;;;;;;118.77;33.73;;;0.20;99.90;;;;;;5033567;28;20046;-42
2022/12/09 10:57:26;;;;;;;117.63;34.43;;;-0.20;99.90;;;;;;5032983;28;20045;-43
2022/12/09 11:00:06;;;;;;;95.03;30.95;;;0.30;99.90;;;;;;5035032;28;20124;-43
2022/12/09 11:02:33;;;;;;;141.13;36.10;;;0.20;99.90;;;;;;5033020;28;20045;-43
2022/12/09 11:05:28;;;;;;;93.68;31.55;;;0.20;99.90;;;;;;5034146;28;20089;-43
2022/12/09 11:07:56;;;;;;;106.18;33.60;;;0.20;99.90;;;;;;5033515;28;20049;-42
2022/12/09 11:10:25;;;;;;;122.40;35.20;;;0.30;99.90;;;;;;5034006;28;20526;-42
2022/12/09 11:12:54;;;;;;;102.90;32.88;;;-0.20;99.90;;;;;;5033410;28;20150;-42
2022/12/09 11:15:34;;;;;;;92.95;29.55;;;0.40;99.90;;;;;;5033993;28;20063;-42
2022/12/09 11:18:42;;;;;;;107.67;33.67;;;-0.10;99.90;;;;;;5034728;28;20380;-42
2022/12/09 11:21:35;;;;;;;104.53;31.55;;;0.30;99.90;;;;;;5012269;28;20516;-42
2022/12/09 11:24:03;;;;;;;86.05;27.60;;;0.30;99.90;;;;;;5008794;28;20081;-41
2022/12/09 11:26:37;;;;;;;91.63;27.10;;;0.30;99.90;;;;;;5026694;28;20492;-39
2022/12/09 11:29:15;;;;;;;129.73;36.78;;;0.40;99.90;;;;;;5032578;28;20057;-41
2022/12/09 11:31:41;;;;;;;118.50;33.65;;;0.30;99.90;;;;;;5034225;28;20045;-41
2022/12/09 11:34:23;;;;;;;85.65;27.50;;;0.50;99.90;;;;;;5033311;28;20057;-40
2022/12/09 11:36:55;;;;;;;107.43;32.28;;;0.50;99.90;;;;;;5033190;28;20383;-36
2022/12/09 11:39:28;;;;;;;96.47;30.80;;;0.50;99.90;;;;;;5034188;28;20053;-35
2022/12/09 11:42:16;;;;;;;;;;;0.40;99.90;;;;;;5035221;28;20048;-35
2022/12/09 11:44:55;;;;;;;107.35;31.67;;;0.40;99.90;;;;;;5033015;28;19928;-35
2022/12/09 11:47:42;;;;;;;102.37;32.30;;;0.30;99.90;;;;;;5033573;28;20120;-34
2022/12/09 11:50:18;;;;;;;105.57;32.78;;;0.20;99.90;;;;;;5034453;28;20077;-34
2022/12/09 11:52:44;;;;;;;103.68;31.50;;;0.30;99.90;;;;;;5033411;28;20072;-35
2022/12/09 11:55:23;;;;;;;105.23;33.43;;;1.20;99.90;;;;;;5033508;28;20107;-35
2022/12/09 11:57:55;;;;;;;127.10;36.33;;;0.20;99.90;;;;;;5033484;28;20038;-34
2022/12/09 12:00:32;;;;;;;137.77;36.90;;;0.10;99.90;;;;;;5033469;28;20045;-35
2022/12/09 12:02:58;;;;;;;98.20;32.40;;;0.20;99.90;;;;;;5033508;28;20049;-34
2022/12/09 12:05:35;;;;;;;112.73;34.07;;;0.30;99.90;;;;;;5032470;28;20079;-36
2022/12/09 12:08:07;;;;;;;128.53;36.13;;;0.30;99.90;;;;;;5032217;28;20053;-35
2022/12/09 12:10:43;;;;;;;125.47;38.38;;;0.40;99.90;;;;;;5033432;28;20128;-34
2022/12/09 12:13:22;;;;;;;90.97;27.83;;;0.30;99.90;;;;;;5033428;28;20056;-35
2022/12/09 12:16:12;;;;;;;112.47;33.07;;;0.40;99.90;;;;;;5033586;28;20459;-34
2022/12/09 12:18:44;;;;;;;391.33;199.07;;;0.30;99.90;;;;;;5033907;28;20042;-34
2022/12/09 12:21:09;;;;;;;261.53;118.77;;;0.40;99.90;;;;;;5033450;28;20050;-34
2022/12/09 12:23:44;;;;;;;168.87;64.60;;;-0.20;99.90;;;;;;5032963;28;20397;-34
2022/12/09 12:26:16;;;;;;;308.63;108.27;;;0.10;99.90;;;;;;5033764;28;20057;-34
2022/12/09 12:28:53;;;;;;;122.60;42.40;;;-0.50;99.90;;;;;;5033206;28;20045;-34
2022/12/09 12:32:03;;;;;;;132.37;43.10;;;0.00;99.90;;;;;;5033781;28;20049;-34
2022/12/09 12:34:43;;;;;;;128.83;38.23;;;0.30;99.90;;;;;;5028400;28;20057;-35
2022/12/09 12:37:34;;;;;;;99.93;32.93;;;0.40;99.90;;;;;;5034528;28;20360;-35
2022/12/09 12:40:25;;;;;;;74.23;27.07;;;0.70;99.90;;;;;;5033047;28;20053;-34
2022/12/09 12:46:17;;;;;;;;;;;1.30;99.90;;;;;;5028637;28;20406;-34